Richmond Heights, Missouri
Current Conditions -  °F | °C
As of 6:01 AM on Monday 26 Jan 2015 (Local Time) from KSTL Reporting Station
Broken Clouds Broken Clouds  
Wind Chill: 20°   Ceiling: 2500
Heat Index: 27°   Visibility: 10mi
Dew Point: 21°   Wind: 6mph
Humidity: 80%   Direction: 290°WNW
Pressure: 30.04"   Gusts: NA
Location:  38.63°N, 90.32°W
Report Text: KSTL 261201Z 29005KT 10SM BKN025 M03/M06 A3004 RMK AO2
Loading
Personal Weather Stations






























Interactive Weather Map New forecast layout! Learn more

10-Day Weather Forecast

Advertisements
Track Severe Weather on mobile